sensor_id;sensor_type;location;lat;lon;timestamp;P1;durP1;ratioP1;P2;durP2;ratioP2
9675;SDS011;4876;42.656;23.292;2023-11-21T00:00:01;23.30;;;12.17;;
9675;SDS011;4876;42.656;23.292;2023-11-21T00:02:29;19.37;;;11.33;;
9675;SDS011;4876;42.656;23.292;2023-11-21T00:04:56;19.67;;;11.30;;
9675;SDS011;4876;42.656;23.292;2023-11-21T00:07:24;21.10;;;12.13;;
9675;SDS011;4876;42.656;23.292;2023-11-21T00:09:51;21.97;;;11.33;;
9675;SDS011;4876;42.656;23.292;2023-11-21T00:12:21;24.97;;;12.30;;
9675;SDS011;4876;42.656;23.292;2023-11-21T00:14:47;20.23;;;11.47;;
9675;SDS011;4876;42.656;23.292;2023-11-21T00:17:14;27.23;;;13.37;;
9675;SDS011;4876;42.656;23.292;2023-11-21T00:19:41;18.77;;;11.50;;
9675;SDS011;4876;42.656;23.292;2023-11-21T00:22:08;21.47;;;11.13;;
9675;SDS011;4876;42.656;23.292;2023-11-21T00:24:36;27.83;;;12.00;;
9675;SDS011;4876;42.656;23.292;2023-11-21T00:27:03;24.53;;;11.70;;
9675;SDS011;4876;42.656;23.292;2023-11-21T00:29:31;17.93;;;10.13;;
9675;SDS011;4876;42.656;23.292;2023-11-21T00:31:58;17.93;;;10.57;;
9675;SDS011;4876;42.656;23.292;2023-11-21T00:34:24;22.10;;;9.93;;
9675;SDS011;4876;42.656;23.292;2023-11-21T00:36:51;16.47;;;10.67;;
9675;SDS011;4876;42.656;23.292;2023-11-21T00:39:18;28.90;;;13.20;;
9675;SDS011;4876;42.656;23.292;2023-11-21T00:41:46;20.53;;;12.10;;
9675;SDS011;4876;42.656;23.292;2023-11-21T00:44:13;26.97;;;12.70;;
9675;SDS011;4876;42.656;23.292;2023-11-21T00:46:41;18.70;;;11.47;;
9675;SDS011;4876;42.656;23.292;2023-11-21T00:49:08;21.93;;;11.37;;
9675;SDS011;4876;42.656;23.292;2023-11-21T00:51:35;21.30;;;11.97;;
9675;SDS011;4876;42.656;23.292;2023-11-21T00:54:02;23.73;;;11.77;;
9675;SDS011;4876;42.656;23.292;2023-11-21T00:56:29;22.80;;;12.77;;
9675;SDS011;4876;42.656;23.292;2023-11-21T00:58:58;24.70;;;12.60;;
9675;SDS011;4876;42.656;23.292;2023-11-21T01:01:25;18.67;;;10.97;;
9675;SDS011;4876;42.656;23.292;2023-11-21T01:03:52;23.67;;;13.50;;
9675;SDS011;4876;42.656;23.292;2023-11-21T01:06:19;24.47;;;12.93;;
9675;SDS011;4876;42.656;23.292;2023-11-21T01:08:46;20.77;;;11.30;;
9675;SDS011;4876;42.656;23.292;2023-11-21T01:11:13;19.90;;;11.97;;
9675;SDS011;4876;42.656;23.292;2023-11-21T01:13:40;23.27;;;13.10;;
9675;SDS011;4876;42.656;23.292;2023-11-21T01:16:09;20.63;;;12.27;;
9675;SDS011;4876;42.656;23.292;2023-11-21T01:18:36;26.73;;;11.63;;
9675;SDS011;4876;42.656;23.292;2023-11-21T01:21:03;22.13;;;12.40;;
9675;SDS011;4876;42.656;23.292;2023-11-21T01:23:31;21.00;;;11.43;;
9675;SDS011;4876;42.656;23.292;2023-11-21T01:25:58;20.60;;;11.90;;
9675;SDS011;4876;42.656;23.292;2023-11-21T01:28:24;18.73;;;11.30;;
9675;SDS011;4876;42.656;23.292;2023-11-21T01:30:51;20.33;;;12.60;;
9675;SDS011;4876;42.656;23.292;2023-11-21T01:33:23;17.60;;;12.13;;
9675;SDS011;4876;42.656;23.292;2023-11-21T01:35:50;20.87;;;12.87;;
9675;SDS011;4876;42.656;23.292;2023-11-21T01:38:20;19.87;;;11.33;;
9675;SDS011;4876;42.656;23.292;2023-11-21T01:40:47;17.17;;;10.40;;
9675;SDS011;4876;42.656;23.292;2023-11-21T01:43:14;19.30;;;10.33;;
9675;SDS011;4876;42.656;23.292;2023-11-21T01:45:42;18.50;;;12.57;;
9675;SDS011;4876;42.656;23.292;2023-11-21T01:48:10;22.07;;;14.00;;
9675;SDS011;4876;42.656;23.292;2023-11-21T01:50:39;24.53;;;14.63;;
9675;SDS011;4876;42.656;23.292;2023-11-21T01:53:07;20.80;;;13.10;;
9675;SDS011;4876;42.656;23.292;2023-11-21T01:55:35;17.23;;;11.33;;
9675;SDS011;4876;42.656;23.292;2023-11-21T01:58:01;18.77;;;10.73;;
9675;SDS011;4876;42.656;23.292;2023-11-21T02:00:29;21.07;;;11.60;;
9675;SDS011;4876;42.656;23.292;2023-11-21T02:02:56;24.90;;;13.27;;
9675;SDS011;4876;42.656;23.292;2023-11-21T02:05:23;22.27;;;13.30;;
9675;SDS011;4876;42.656;23.292;2023-11-21T02:07:52;24.23;;;14.83;;
9675;SDS011;4876;42.656;23.292;2023-11-21T02:10:19;28.60;;;15.93;;
9675;SDS011;4876;42.656;23.292;2023-11-21T02:12:48;26.13;;;15.97;;
9675;SDS011;4876;42.656;23.292;2023-11-21T02:15:16;27.50;;;13.20;;
9675;SDS011;4876;42.656;23.292;2023-11-21T02:17:45;20.33;;;12.47;;
9675;SDS011;4876;42.656;23.292;2023-11-21T02:20:16;29.93;;;13.67;;
9675;SDS011;4876;42.656;23.292;2023-11-21T02:22:48;27.33;;;14.17;;
9675;SDS011;4876;42.656;23.292;2023-11-21T02:25:17;23.60;;;12.97;;
9675;SDS011;4876;42.656;23.292;2023-11-21T02:27:44;24.73;;;14.47;;
9675;SDS011;4876;42.656;23.292;2023-11-21T02:30:14;29.30;;;16.43;;
9675;SDS011;4876;42.656;23.292;2023-11-21T02:32:41;19.53;;;12.40;;
9675;SDS011;4876;42.656;23.292;2023-11-21T02:35:08;20.60;;;10.87;;
9675;SDS011;4876;42.656;23.292;2023-11-21T02:37:37;17.93;;;10.53;;
9675;SDS011;4876;42.656;23.292;2023-11-21T02:40:07;17.87;;;11.20;;
9675;SDS011;4876;42.656;23.292;2023-11-21T02:42:37;18.57;;;12.13;;
9675;SDS011;4876;42.656;23.292;2023-11-21T02:45:04;20.57;;;13.70;;
9675;SDS011;4876;42.656;23.292;2023-11-21T02:47:31;27.43;;;15.00;;
9675;SDS011;4876;42.656;23.292;2023-11-21T02:49:58;20.50;;;13.30;;
9675;SDS011;4876;42.656;23.292;2023-11-21T02:52:25;27.47;;;16.63;;
9675;SDS011;4876;42.656;23.292;2023-11-21T02:54:53;23.40;;;14.53;;
9675;SDS011;4876;42.656;23.292;2023-11-21T02:57:21;28.57;;;14.97;;
9675;SDS011;4876;42.656;23.292;2023-11-21T02:59:48;22.80;;;14.60;;
9675;SDS011;4876;42.656;23.292;2023-11-21T03:02:15;26.23;;;14.90;;
9675;SDS011;4876;42.656;23.292;2023-11-21T03:04:42;23.80;;;13.13;;
9675;SDS011;4876;42.656;23.292;2023-11-21T03:07:09;17.97;;;11.70;;
9675;SDS011;4876;42.656;23.292;2023-11-21T03:09:36;27.97;;;12.93;;
9675;SDS011;4876;42.656;23.292;2023-11-21T03:12:04;20.70;;;11.87;;
9675;SDS011;4876;42.656;23.292;2023-11-21T03:14:34;14.60;;;10.27;;
9675;SDS011;4876;42.656;23.292;2023-11-21T03:17:01;17.47;;;10.77;;
9675;SDS011;4876;42.656;23.292;2023-11-21T03:19:34;18.10;;;11.30;;
9675;SDS011;4876;42.656;23.292;2023-11-21T03:22:01;21.63;;;12.97;;
9675;SDS011;4876;42.656;23.292;2023-11-21T03:24:32;19.50;;;11.80;;
9675;SDS011;4876;42.656;23.292;2023-11-21T03:26:59;18.53;;;11.93;;
9675;SDS011;4876;42.656;23.292;2023-11-21T03:29:26;20.87;;;13.10;;
9675;SDS011;4876;42.656;23.292;2023-11-21T03:31:54;23.33;;;12.80;;
9675;SDS011;4876;42.656;23.292;2023-11-21T03:34:23;21.80;;;12.30;;
9675;SDS011;4876;42.656;23.292;2023-11-21T03:36:51;18.77;;;12.77;;
9675;SDS011;4876;42.656;23.292;2023-11-21T03:39:19;20.33;;;11.93;;
9675;SDS011;4876;42.656;23.292;2023-11-21T03:41:47;20.03;;;11.80;;
9675;SDS011;4876;42.656;23.292;2023-11-21T03:44:14;21.20;;;11.80;;
9675;SDS011;4876;42.656;23.292;2023-11-21T03:46:43;26.27;;;13.90;;
9675;SDS011;4876;42.656;23.292;2023-11-21T03:49:11;25.60;;;14.60;;
9675;SDS011;4876;42.656;23.292;2023-11-21T03:51:38;14.73;;;8.00;;
9675;SDS011;4876;42.656;23.292;2023-11-21T03:54:04;16.30;;;7.93;;
9675;SDS011;4876;42.656;23.292;2023-11-21T03:56:31;17.73;;;8.50;;
9675;SDS011;4876;42.656;23.292;2023-11-21T03:58:58;19.33;;;10.77;;
9675;SDS011;4876;42.656;23.292;2023-11-21T04:01:25;29.50;;;14.77;;
9675;SDS011;4876;42.656;23.292;2023-11-21T04:03:52;16.13;;;9.53;;
9675;SDS011;4876;42.656;23.292;2023-11-21T04:06:20;13.27;;;8.63;;
9675;SDS011;4876;42.656;23.292;2023-11-21T04:08:47;20.23;;;10.57;;
9675;SDS011;4876;42.656;23.292;2023-11-21T04:11:14;19.60;;;11.37;;
9675;SDS011;4876;42.656;23.292;2023-11-21T04:13:40;20.80;;;13.90;;
9675;SDS011;4876;42.656;23.292;2023-11-21T04:16:08;22.07;;;14.20;;
9675;SDS011;4876;42.656;23.292;2023-11-21T04:18:35;26.77;;;13.60;;
9675;SDS011;4876;42.656;23.292;2023-11-21T04:21:03;22.57;;;12.27;;
9675;SDS011;4876;42.656;23.292;2023-11-21T04:23:32;29.73;;;15.23;;
9675;SDS011;4876;42.656;23.292;2023-11-21T04:26:00;21.67;;;13.03;;
9675;SDS011;4876;42.656;23.292;2023-11-21T04:28:27;24.87;;;13.67;;
9675;SDS011;4876;42.656;23.292;2023-11-21T04:30:54;18.77;;;12.97;;
9675;SDS011;4876;42.656;23.292;2023-11-21T04:33:21;24.27;;;13.37;;
9675;SDS011;4876;42.656;23.292;2023-11-21T04:35:50;27.23;;;14.43;;
9675;SDS011;4876;42.656;23.292;2023-11-21T04:38:18;26.40;;;15.53;;
9675;SDS011;4876;42.656;23.292;2023-11-21T04:40:46;26.23;;;14.47;;
9675;SDS011;4876;42.656;23.292;2023-11-21T04:43:17;27.00;;;14.73;;
9675;SDS011;4876;42.656;23.292;2023-11-21T04:45:44;22.37;;;14.30;;
9675;SDS011;4876;42.656;23.292;2023-11-21T04:48:14;29.40;;;14.63;;
9675;SDS011;4876;42.656;23.292;2023-11-21T04:50:41;26.73;;;15.47;;
9675;SDS011;4876;42.656;23.292;2023-11-21T04:53:08;24.17;;;15.27;;
9675;SDS011;4876;42.656;23.292;2023-11-21T04:55:38;24.20;;;16.33;;
9675;SDS011;4876;42.656;23.292;2023-11-21T04:58:07;26.53;;;17.30;;
9675;SDS011;4876;42.656;23.292;2023-11-21T05:00:34;28.43;;;16.77;;
9675;SDS011;4876;42.656;23.292;2023-11-21T05:03:04;27.20;;;16.10;;
9675;SDS011;4876;42.656;23.292;2023-11-21T05:05:32;22.03;;;13.57;;
9675;SDS011;4876;42.656;23.292;2023-11-21T05:08:00;27.13;;;14.23;;
9675;SDS011;4876;42.656;23.292;2023-11-21T05:10:27;22.87;;;12.87;;
9675;SDS011;4876;42.656;23.292;2023-11-21T05:12:56;22.97;;;13.17;;
9675;SDS011;4876;42.656;23.292;2023-11-21T05:15:36;32.37;;;14.53;;
9675;SDS011;4876;42.656;23.292;2023-11-21T05:18:06;25.23;;;14.43;;
9675;SDS011;4876;42.656;23.292;2023-11-21T05:20:36;31.17;;;14.77;;
9675;SDS011;4876;42.656;23.292;2023-11-21T05:23:06;26.00;;;13.70;;
9675;SDS011;4876;42.656;23.292;2023-11-21T05:25:36;30.40;;;14.83;;
9675;SDS011;4876;42.656;23.292;2023-11-21T05:28:08;21.93;;;13.67;;
9675;SDS011;4876;42.656;23.292;2023-11-21T05:30:43;28.50;;;13.40;;
9675;SDS011;4876;42.656;23.292;2023-11-21T05:33:15;25.93;;;13.60;;
9675;SDS011;4876;42.656;23.292;2023-11-21T05:35:47;28.30;;;15.87;;
9675;SDS011;4876;42.656;23.292;2023-11-21T05:38:14;25.67;;;14.03;;
9675;SDS011;4876;42.656;23.292;2023-11-21T05:41:00;33.77;;;14.97;;
9675;SDS011;4876;42.656;23.292;2023-11-21T05:43:37;28.57;;;15.37;;
9675;SDS011;4876;42.656;23.292;2023-11-21T05:46:09;26.17;;;14.87;;
9675;SDS011;4876;42.656;23.292;2023-11-21T05:48:36;24.97;;;14.97;;
9675;SDS011;4876;42.656;23.292;2023-11-21T05:51:04;29.57;;;15.30;;
9675;SDS011;4876;42.656;23.292;2023-11-21T05:53:31;27.33;;;15.17;;
9675;SDS011;4876;42.656;23.292;2023-11-21T05:55:58;27.50;;;15.23;;
9675;SDS011;4876;42.656;23.292;2023-11-21T05:58:25;24.73;;;13.73;;
9675;SDS011;4876;42.656;23.292;2023-11-21T06:00:53;25.20;;;14.83;;
9675;SDS011;4876;42.656;23.292;2023-11-21T06:03:20;25.53;;;13.93;;
9675;SDS011;4876;42.656;23.292;2023-11-21T06:05:48;29.73;;;15.83;;
9675;SDS011;4876;42.656;23.292;2023-11-21T06:08:15;35.07;;;16.03;;
9675;SDS011;4876;42.656;23.292;2023-11-21T06:10:42;36.87;;;18.07;;
9675;SDS011;4876;42.656;23.292;2023-11-21T06:13:10;24.83;;;15.97;;
9675;SDS011;4876;42.656;23.292;2023-11-21T06:15:36;30.80;;;19.03;;
9675;SDS011;4876;42.656;23.292;2023-11-21T06:18:05;31.37;;;17.37;;
9675;SDS011;4876;42.656;23.292;2023-11-21T06:20:35;30.03;;;16.67;;
9675;SDS011;4876;42.656;23.292;2023-11-21T06:23:03;28.17;;;15.47;;
9675;SDS011;4876;42.656;23.292;2023-11-21T06:25:30;39.93;;;17.67;;
9675;SDS011;4876;42.656;23.292;2023-11-21T06:28:01;32.40;;;17.57;;
9675;SDS011;4876;42.656;23.292;2023-11-21T06:30:28;34.07;;;17.03;;
9675;SDS011;4876;42.656;23.292;2023-11-21T06:32:55;31.30;;;16.53;;
9675;SDS011;4876;42.656;23.292;2023-11-21T06:35:24;36.03;;;17.97;;
9675;SDS011;4876;42.656;23.292;2023-11-21T06:37:52;33.30;;;16.83;;
9675;SDS011;4876;42.656;23.292;2023-11-21T06:40:19;30.33;;;19.67;;
9675;SDS011;4876;42.656;23.292;2023-11-21T06:42:46;33.03;;;18.63;;
9675;SDS011;4876;42.656;23.292;2023-11-21T06:45:14;26.97;;;17.03;;
9675;SDS011;4876;42.656;23.292;2023-11-21T06:47:42;30.33;;;17.40;;
9675;SDS011;4876;42.656;23.292;2023-11-21T06:50:09;32.60;;;16.23;;
9675;SDS011;4876;42.656;23.292;2023-11-21T06:52:37;30.60;;;17.13;;
9675;SDS011;4876;42.656;23.292;2023-11-21T06:55:05;44.50;;;17.63;;
9675;SDS011;4876;42.656;23.292;2023-11-21T06:57:33;34.33;;;17.30;;
9675;SDS011;4876;42.656;23.292;2023-11-21T07:00:04;25.40;;;17.13;;
9675;SDS011;4876;42.656;23.292;2023-11-21T07:02:34;36.57;;;18.63;;
9675;SDS011;4876;42.656;23.292;2023-11-21T07:05:01;30.77;;;19.00;;
9675;SDS011;4876;42.656;23.292;2023-11-21T07:07:31;35.60;;;18.63;;
9675;SDS011;4876;42.656;23.292;2023-11-21T07:10:08;31.50;;;17.60;;
9675;SDS011;4876;42.656;23.292;2023-11-21T07:12:36;37.43;;;20.23;;
9675;SDS011;4876;42.656;23.292;2023-11-21T07:15:04;30.87;;;18.63;;
9675;SDS011;4876;42.656;23.292;2023-11-21T07:17:34;32.27;;;19.17;;
9675;SDS011;4876;42.656;23.292;2023-11-21T07:20:00;32.00;;;18.77;;
9675;SDS011;4876;42.656;23.292;2023-11-21T07:22:37;42.37;;;19.73;;
9675;SDS011;4876;42.656;23.292;2023-11-21T07:25:17;32.40;;;19.90;;
9675;SDS011;4876;42.656;23.292;2023-11-21T07:27:44;30.13;;;18.73;;
9675;SDS011;4876;42.656;23.292;2023-11-21T07:30:11;33.80;;;21.10;;
9675;SDS011;4876;42.656;23.292;2023-11-21T07:32:41;40.53;;;21.10;;
9675;SDS011;4876;42.656;23.292;2023-11-21T07:35:08;32.73;;;18.50;;
9675;SDS011;4876;42.656;23.292;2023-11-21T07:37:35;33.83;;;17.50;;
9675;SDS011;4876;42.656;23.292;2023-11-21T07:40:02;30.93;;;17.90;;
9675;SDS011;4876;42.656;23.292;2023-11-21T07:42:31;43.07;;;18.87;;
9675;SDS011;4876;42.656;23.292;2023-11-21T07:44:58;35.47;;;20.40;;
9675;SDS011;4876;42.656;23.292;2023-11-21T07:47:25;47.73;;;22.33;;
9675;SDS011;4876;42.656;23.292;2023-11-21T07:49:52;36.93;;;20.60;;
9675;SDS011;4876;42.656;23.292;2023-11-21T07:52:21;37.90;;;19.37;;
9675;SDS011;4876;42.656;23.292;2023-11-21T07:54:48;40.13;;;22.27;;
9675;SDS011;4876;42.656;23.292;2023-11-21T07:57:15;35.70;;;21.13;;
9675;SDS011;4876;42.656;23.292;2023-11-21T07:59:43;38.17;;;21.63;;
9675;SDS011;4876;42.656;23.292;2023-11-21T08:02:10;37.93;;;21.87;;
9675;SDS011;4876;42.656;23.292;2023-11-21T08:04:37;35.27;;;19.90;;
9675;SDS011;4876;42.656;23.292;2023-11-21T08:07:04;45.70;;;21.00;;
9675;SDS011;4876;42.656;23.292;2023-11-21T08:09:31;31.07;;;20.37;;
9675;SDS011;4876;42.656;23.292;2023-11-21T08:11:59;32.77;;;21.47;;
9675;SDS011;4876;42.656;23.292;2023-11-21T08:14:28;33.17;;;20.67;;
9675;SDS011;4876;42.656;23.292;2023-11-21T08:16:57;37.57;;;21.10;;
9675;SDS011;4876;42.656;23.292;2023-11-21T08:19:35;40.97;;;22.07;;
9675;SDS011;4876;42.656;23.292;2023-11-21T08:22:03;46.00;;;23.13;;
9675;SDS011;4876;42.656;23.292;2023-11-21T08:24:32;34.23;;;21.77;;
9675;SDS011;4876;42.656;23.292;2023-11-21T08:27:03;47.93;;;22.97;;
9675;SDS011;4876;42.656;23.292;2023-11-21T08:29:32;55.33;;;23.77;;
9675;SDS011;4876;42.656;23.292;2023-11-21T08:32:01;41.77;;;21.53;;
9675;SDS011;4876;42.656;23.292;2023-11-21T08:34:28;40.75;;;23.05;;
9675;SDS011;4876;42.656;23.292;2023-11-21T08:36:54;41.03;;;22.50;;
9675;SDS011;4876;42.656;23.292;2023-11-21T08:39:22;30.70;;;20.40;;
9675;SDS011;4876;42.656;23.292;2023-11-21T08:41:49;32.83;;;20.50;;
9675;SDS011;4876;42.656;23.292;2023-11-21T08:44:16;32.20;;;19.67;;
9675;SDS011;4876;42.656;23.292;2023-11-21T08:46:43;34.47;;;19.53;;
9675;SDS011;4876;42.656;23.292;2023-11-21T08:49:13;43.37;;;20.43;;
9675;SDS011;4876;42.656;23.292;2023-11-21T08:51:40;40.70;;;20.07;;
9675;SDS011;4876;42.656;23.292;2023-11-21T08:54:07;32.50;;;18.90;;
9675;SDS011;4876;42.656;23.292;2023-11-21T08:56:34;49.77;;;20.40;;
9675;SDS011;4876;42.656;23.292;2023-11-21T08:59:01;31.03;;;18.70;;
9675;SDS011;4876;42.656;23.292;2023-11-21T09:01:28;47.63;;;19.90;;
9675;SDS011;4876;42.656;23.292;2023-11-21T09:03:56;40.10;;;21.87;;
9675;SDS011;4876;42.656;23.292;2023-11-21T09:06:24;37.77;;;20.80;;
9675;SDS011;4876;42.656;23.292;2023-11-21T09:08:51;34.00;;;18.87;;
9675;SDS011;4876;42.656;23.292;2023-11-21T09:11:18;33.53;;;18.97;;
9675;SDS011;4876;42.656;23.292;2023-11-21T09:13:45;45.77;;;20.70;;
9675;SDS011;4876;42.656;23.292;2023-11-21T09:16:13;33.37;;;19.63;;
9675;SDS011;4876;42.656;23.292;2023-11-21T09:18:40;31.20;;;18.77;;
9675;SDS011;4876;42.656;23.292;2023-11-21T09:21:07;34.10;;;19.57;;
9675;SDS011;4876;42.656;23.292;2023-11-21T09:23:36;43.00;;;18.40;;
9675;SDS011;4876;42.656;23.292;2023-11-21T09:26:03;34.80;;;18.27;;
9675;SDS011;4876;42.656;23.292;2023-11-21T09:28:30;36.70;;;21.57;;
9675;SDS011;4876;42.656;23.292;2023-11-21T09:30:57;24.63;;;14.73;;
9675;SDS011;4876;42.656;23.292;2023-11-21T09:33:24;27.80;;;15.57;;
9675;SDS011;4876;42.656;23.292;2023-11-21T09:35:51;24.03;;;16.20;;
9675;SDS011;4876;42.656;23.292;2023-11-21T09:38:19;32.20;;;17.70;;
9675;SDS011;4876;42.656;23.292;2023-11-21T09:40:47;33.20;;;18.50;;
9675;SDS011;4876;42.656;23.292;2023-11-21T09:43:15;34.90;;;16.77;;
9675;SDS011;4876;42.656;23.292;2023-11-21T09:45:45;41.67;;;19.30;;
9675;SDS011;4876;42.656;23.292;2023-11-21T09:48:13;31.53;;;18.97;;
9675;SDS011;4876;42.656;23.292;2023-11-21T09:50:41;28.83;;;14.43;;
9675;SDS011;4876;42.656;23.292;2023-11-21T09:53:11;28.77;;;14.60;;
9675;SDS011;4876;42.656;23.292;2023-11-21T09:55:42;19.13;;;12.77;;
9675;SDS011;4876;42.656;23.292;2023-11-21T09:58:11;26.90;;;14.17;;
9675;SDS011;4876;42.656;23.292;2023-11-21T10:00:42;25.03;;;13.67;;
9675;SDS011;4876;42.656;23.292;2023-11-21T10:03:10;28.20;;;13.57;;
9675;SDS011;4876;42.656;23.292;2023-11-21T10:05:38;21.20;;;14.73;;
9675;SDS011;4876;42.656;23.292;2023-11-21T10:08:07;26.17;;;13.00;;
9675;SDS011;4876;42.656;23.292;2023-11-21T10:10:35;28.10;;;13.63;;
9675;SDS011;4876;42.656;23.292;2023-11-21T10:13:04;28.17;;;14.00;;
9675;SDS011;4876;42.656;23.292;2023-11-21T10:15:34;22.23;;;12.33;;
9675;SDS011;4876;42.656;23.292;2023-11-21T10:18:02;20.27;;;11.40;;
9675;SDS011;4876;42.656;23.292;2023-11-21T10:20:31;27.50;;;12.50;;
9675;SDS011;4876;42.656;23.292;2023-11-21T10:22:59;21.30;;;11.80;;
9675;SDS011;4876;42.656;23.292;2023-11-21T10:25:28;22.03;;;13.43;;
9675;SDS011;4876;42.656;23.292;2023-11-21T10:27:57;19.37;;;14.10;;
9675;SDS011;4876;42.656;23.292;2023-11-21T10:30:31;28.27;;;14.53;;
9675;SDS011;4876;42.656;23.292;2023-11-21T10:33:02;36.73;;;14.93;;
9675;SDS011;4876;42.656;23.292;2023-11-21T10:35:39;36.23;;;15.20;;
9675;SDS011;4876;42.656;23.292;2023-11-21T10:38:12;26.50;;;13.60;;
9675;SDS011;4876;42.656;23.292;2023-11-21T10:40:39;44.97;;;19.10;;
9675;SDS011;4876;42.656;23.292;2023-11-21T10:43:07;19.70;;;12.33;;
9675;SDS011;4876;42.656;23.292;2023-11-21T10:45:37;25.67;;;11.20;;
9675;SDS011;4876;42.656;23.292;2023-11-21T10:48:05;22.17;;;11.07;;
9675;SDS011;4876;42.656;23.292;2023-11-21T10:50:34;27.40;;;12.87;;
9675;SDS011;4876;42.656;23.292;2023-11-21T10:53:01;16.07;;;11.00;;
9675;SDS011;4876;42.656;23.292;2023-11-21T10:55:29;17.63;;;11.43;;
9675;SDS011;4876;42.656;23.292;2023-11-21T10:57:58;16.63;;;11.43;;
9675;SDS011;4876;42.656;23.292;2023-11-21T11:00:27;31.47;;;13.23;;
9675;SDS011;4876;42.656;23.292;2023-11-21T11:02:56;23.87;;;13.30;;
9675;SDS011;4876;42.656;23.292;2023-11-21T11:05:24;36.27;;;14.80;;
9675;SDS011;4876;42.656;23.292;2023-11-21T11:08:04;28.53;;;15.10;;
9675;SDS011;4876;42.656;23.292;2023-11-21T11:10:32;33.20;;;15.67;;
9675;SDS011;4876;42.656;23.292;2023-11-21T11:12:59;22.87;;;15.27;;
9675;SDS011;4876;42.656;23.292;2023-11-21T11:15:26;26.30;;;15.50;;
9675;SDS011;4876;42.656;23.292;2023-11-21T11:17:56;25.77;;;15.33;;
9675;SDS011;4876;42.656;23.292;2023-11-21T11:20:23;28.30;;;15.30;;
9675;SDS011;4876;42.656;23.292;2023-11-21T11:23:04;18.97;;;13.13;;
9675;SDS011;4876;42.656;23.292;2023-11-21T11:25:59;20.40;;;13.97;;
9675;SDS011;4876;42.656;23.292;2023-11-21T11:28:37;18.30;;;13.53;;
9675;SDS011;4876;42.656;23.292;2023-11-21T11:31:11;23.97;;;14.67;;
9675;SDS011;4876;42.656;23.292;2023-11-21T11:33:52;27.63;;;15.33;;
9675;SDS011;4876;42.656;23.292;2023-11-21T11:36:25;23.47;;;14.00;;
9675;SDS011;4876;42.656;23.292;2023-11-21T11:38:55;23.27;;;16.93;;
9675;SDS011;4876;42.656;23.292;2023-11-21T11:41:25;31.53;;;16.20;;
9675;SDS011;4876;42.656;23.292;2023-11-21T11:43:54;28.10;;;17.60;;
9675;SDS011;4876;42.656;23.292;2023-11-21T11:46:26;25.00;;;14.53;;
9675;SDS011;4876;42.656;23.292;2023-11-21T11:49:09;26.53;;;17.40;;
9675;SDS011;4876;42.656;23.292;2023-11-21T11:51:36;27.20;;;17.77;;
9675;SDS011;4876;42.656;23.292;2023-11-21T11:54:03;38.67;;;19.80;;
9675;SDS011;4876;42.656;23.292;2023-11-21T11:56:33;35.17;;;19.90;;
9675;SDS011;4876;42.656;23.292;2023-11-21T11:59:02;34.00;;;20.07;;
9675;SDS011;4876;42.656;23.292;2023-11-21T12:01:32;36.83;;;19.83;;
9675;SDS011;4876;42.656;23.292;2023-11-21T12:07:00;32.10;;;19.67;;
9675;SDS011;4876;42.656;23.292;2023-11-21T12:09:28;30.33;;;16.73;;
9675;SDS011;4876;42.656;23.292;2023-11-21T12:11:57;28.60;;;18.80;;
9675;SDS011;4876;42.656;23.292;2023-11-21T12:14:25;27.33;;;16.67;;
9675;SDS011;4876;42.656;23.292;2023-11-21T12:16:52;28.17;;;16.37;;
9675;SDS011;4876;42.656;23.292;2023-11-21T12:19:20;28.60;;;17.10;;
9675;SDS011;4876;42.656;23.292;2023-11-21T12:21:49;22.63;;;16.97;;
9675;SDS011;4876;42.656;23.292;2023-11-21T12:24:17;29.33;;;18.60;;
9675;SDS011;4876;42.656;23.292;2023-11-21T12:26:44;32.83;;;20.87;;
9675;SDS011;4876;42.656;23.292;2023-11-21T12:29:11;36.40;;;20.43;;
9675;SDS011;4876;42.656;23.292;2023-11-21T12:31:38;30.33;;;21.30;;
9675;SDS011;4876;42.656;23.292;2023-11-21T12:34:05;35.53;;;20.33;;
9675;SDS011;4876;42.656;23.292;2023-11-21T12:36:34;33.37;;;22.03;;
9675;SDS011;4876;42.656;23.292;2023-11-21T12:39:03;42.50;;;24.70;;
9675;SDS011;4876;42.656;23.292;2023-11-21T12:41:30;37.57;;;26.10;;
9675;SDS011;4876;42.656;23.292;2023-11-21T12:43:57;54.90;;;26.27;;
9675;SDS011;4876;42.656;23.292;2023-11-21T12:46:24;44.23;;;28.00;;
9675;SDS011;4876;42.656;23.292;2023-11-21T12:48:54;46.90;;;27.13;;
9675;SDS011;4876;42.656;23.292;2023-11-21T12:51:21;40.53;;;26.23;;
9675;SDS011;4876;42.656;23.292;2023-11-21T12:53:48;41.47;;;25.00;;
9675;SDS011;4876;42.656;23.292;2023-11-21T12:56:17;39.70;;;26.33;;
9675;SDS011;4876;42.656;23.292;2023-11-21T12:58:45;41.57;;;26.10;;
9675;SDS011;4876;42.656;23.292;2023-11-21T13:01:13;55.57;;;25.67;;
9675;SDS011;4876;42.656;23.292;2023-11-21T13:03:45;40.53;;;26.57;;
9675;SDS011;4876;42.656;23.292;2023-11-21T13:06:16;42.07;;;27.57;;
9675;SDS011;4876;42.656;23.292;2023-11-21T13:08:44;44.67;;;28.87;;
9675;SDS011;4876;42.656;23.292;2023-11-21T13:11:11;38.80;;;26.50;;
9675;SDS011;4876;42.656;23.292;2023-11-21T13:13:41;39.53;;;27.40;;
9675;SDS011;4876;42.656;23.292;2023-11-21T13:16:09;39.07;;;26.83;;
9675;SDS011;4876;42.656;23.292;2023-11-21T13:18:36;43.27;;;27.40;;
9675;SDS011;4876;42.656;23.292;2023-11-21T13:21:05;44.83;;;27.53;;
9675;SDS011;4876;42.656;23.292;2023-11-21T13:23:37;36.33;;;26.17;;
9675;SDS011;4876;42.656;23.292;2023-11-21T13:26:05;50.40;;;28.80;;
9675;SDS011;4876;42.656;23.292;2023-11-21T13:28:34;56.50;;;28.47;;
9675;SDS011;4876;42.656;23.292;2023-11-21T13:31:04;49.10;;;28.53;;
9675;SDS011;4876;42.656;23.292;2023-11-21T13:33:45;40.50;;;27.57;;
9675;SDS011;4876;42.656;23.292;2023-11-21T13:36:16;52.23;;;29.57;;
9675;SDS011;4876;42.656;23.292;2023-11-21T13:38:47;42.40;;;29.17;;
9675;SDS011;4876;42.656;23.292;2023-11-21T13:41:15;51.03;;;29.30;;
9675;SDS011;4876;42.656;23.292;2023-11-21T13:43:43;45.73;;;30.60;;
9675;SDS011;4876;42.656;23.292;2023-11-21T13:46:17;45.90;;;30.27;;
9675;SDS011;4876;42.656;23.292;2023-11-21T13:48:47;45.53;;;30.03;;
9675;SDS011;4876;42.656;23.292;2023-11-21T13:51:18;45.30;;;30.10;;
9675;SDS011;4876;42.656;23.292;2023-11-21T13:53:46;43.33;;;31.17;;
9675;SDS011;4876;42.656;23.292;2023-11-21T13:56:15;43.43;;;30.67;;
9675;SDS011;4876;42.656;23.292;2023-11-21T13:58:47;44.07;;;29.83;;
9675;SDS011;4876;42.656;23.292;2023-11-21T14:01:18;44.43;;;30.10;;
9675;SDS011;4876;42.656;23.292;2023-11-21T14:04:07;45.93;;;29.87;;
9675;SDS011;4876;42.656;23.292;2023-11-21T14:06:45;50.07;;;30.00;;
9675;SDS011;4876;42.656;23.292;2023-11-21T14:09:14;54.57;;;30.83;;
9675;SDS011;4876;42.656;23.292;2023-11-21T14:11:48;45.90;;;30.17;;
9675;SDS011;4876;42.656;23.292;2023-11-21T14:14:16;46.37;;;29.07;;
9675;SDS011;4876;42.656;23.292;2023-11-21T14:16:45;53.50;;;29.97;;
9675;SDS011;4876;42.656;23.292;2023-11-21T14:19:11;39.93;;;29.40;;
9675;SDS011;4876;42.656;23.292;2023-11-21T14:21:42;54.50;;;31.67;;
9675;SDS011;4876;42.656;23.292;2023-11-21T14:24:09;51.93;;;32.07;;
9675;SDS011;4876;42.656;23.292;2023-11-21T14:26:38;50.33;;;31.73;;
9675;SDS011;4876;42.656;23.292;2023-11-21T14:29:10;55.13;;;31.43;;
9675;SDS011;4876;42.656;23.292;2023-11-21T14:31:39;58.77;;;31.60;;
9675;SDS011;4876;42.656;23.292;2023-11-21T14:34:08;56.30;;;31.10;;
9675;SDS011;4876;42.656;23.292;2023-11-21T14:36:37;50.03;;;31.10;;
9675;SDS011;4876;42.656;23.292;2023-11-21T14:39:04;53.37;;;31.40;;
9675;SDS011;4876;42.656;23.292;2023-11-21T14:41:34;46.90;;;30.97;;
9675;SDS011;4876;42.656;23.292;2023-11-21T14:44:02;57.53;;;31.93;;
9675;SDS011;4876;42.656;23.292;2023-11-21T14:46:32;44.37;;;30.83;;